createdAt,value
2017-11-26T00:01:09.765Z,4.43
2017-11-26T00:03:37.310Z,4.55
2017-11-26T00:06:04.896Z,3.70
2017-11-26T00:08:32.439Z,3.55
2017-11-26T00:11:00.023Z,3.40
2017-11-26T00:13:27.570Z,3.50
2017-11-26T00:15:55.159Z,3.22
2017-11-26T00:18:22.703Z,3.60
2017-11-26T00:20:50.293Z,4.20
2017-11-26T00:23:18.609Z,3.70
2017-11-26T00:25:46.959Z,3.90
2017-11-26T00:28:15.266Z,3.97
2017-11-26T00:30:42.940Z,4.35
2017-11-26T00:33:10.479Z,4.20
2017-11-26T00:35:38.062Z,3.60
2017-11-26T00:38:05.607Z,4.45
2017-11-26T00:40:33.210Z,4.53
2017-11-26T00:43:00.795Z,4.47
2017-11-26T00:45:28.323Z,4.50
2017-11-26T00:47:55.906Z,4.20
2017-11-26T00:50:24.217Z,4.30
2017-11-26T00:52:51.803Z,3.72
2017-11-26T00:55:19.338Z,4.97
2017-11-26T00:57:46.924Z,4.78
2017-11-26T01:00:14.500Z,4.12
2017-11-26T01:02:42.037Z,5.20
2017-11-26T01:05:09.697Z,5.28
2017-11-26T01:07:37.240Z,5.30
2017-11-26T01:10:04.831Z,5.68
2017-11-26T01:12:32.378Z,4.90
2017-11-26T01:14:59.958Z,4.50
2017-11-26T01:17:27.599Z,5.68
2017-11-26T01:19:55.186Z,4.57
2017-11-26T01:22:28.434Z,4.97
2017-11-26T01:24:56.028Z,4.43
2017-11-26T01:27:23.574Z,4.65
2017-11-26T01:29:51.153Z,5.25
2017-11-26T01:32:18.696Z,5.00
2017-11-26T01:34:46.284Z,4.65
2017-11-26T01:37:13.827Z,5.12
2017-11-26T01:39:41.408Z,5.25
2017-11-26T01:42:09.033Z,5.12
2017-11-26T01:44:36.612Z,5.55
2017-11-26T01:47:04.237Z,5.00
2017-11-26T01:49:31.819Z,5.30
2017-11-26T01:51:59.368Z,4.70
2017-11-26T01:54:26.962Z,5.30
2017-11-26T01:56:55.422Z,4.95
2017-11-26T01:59:22.969Z,5.47
2017-11-26T02:01:50.560Z,5.90
2017-11-26T02:04:18.110Z,5.78
2017-11-26T02:06:45.697Z,5.20
2017-11-26T02:09:13.247Z,5.53
2017-11-26T02:11:40.831Z,5.80
2017-11-26T02:14:09.140Z,5.53
2017-11-26T02:16:36.731Z,5.90
2017-11-26T02:19:04.270Z,6.07
2017-11-26T02:21:31.846Z,6.10
2017-11-26T02:23:59.387Z,5.87
2017-11-26T02:26:26.972Z,5.43
2017-11-26T02:28:54.518Z,5.37
2017-11-26T02:31:34.068Z,5.65
2017-11-26T02:34:13.443Z,6.47
2017-11-26T02:36:41.785Z,5.87
2017-11-26T02:39:09.331Z,6.15
2017-11-26T02:41:36.920Z,5.82
2017-11-26T02:44:04.468Z,6.03
2017-11-26T02:46:32.066Z,6.53
2017-11-26T02:48:59.615Z,5.72
2017-11-26T02:51:27.962Z,6.00
2017-11-26T02:53:55.503Z,6.22
2017-11-26T02:56:23.079Z,6.18
2017-11-26T02:58:50.637Z,6.07
2017-11-26T03:01:18.217Z,6.35
2017-11-26T03:03:45.758Z,6.10
2017-11-26T03:06:13.338Z,6.65
2017-11-26T03:08:40.878Z,6.53
2017-11-26T03:11:08.450Z,5.65
2017-11-26T03:13:37.492Z,6.70
2017-11-26T03:16:05.071Z,6.47
2017-11-26T03:18:32.606Z,6.18
2017-11-26T03:21:00.191Z,6.00
2017-11-26T03:23:27.742Z,5.50
2017-11-26T03:25:55.338Z,6.22
2017-11-26T03:28:22.890Z,5.70
2017-11-26T03:30:50.471Z,5.62
2017-11-26T03:33:18.015Z,5.95
2017-11-26T03:35:45.589Z,5.80
2017-11-26T03:38:13.147Z,5.90
2017-11-26T03:40:40.726Z,5.53
2017-11-26T03:43:09.031Z,7.80
2017-11-26T03:45:36.610Z,6.18
2017-11-26T03:48:04.144Z,6.90
2017-11-26T03:50:31.722Z,7.43
2017-11-26T03:52:59.259Z,6.90
2017-11-26T03:55:26.953Z,7.18
2017-11-26T03:57:54.923Z,6.85
2017-11-26T04:00:22.502Z,7.22
2017-11-26T04:02:50.046Z,6.70
2017-11-26T04:05:17.626Z,6.68
2017-11-26T04:07:45.166Z,8.00
2017-11-26T04:10:12.744Z,7.35
2017-11-26T04:12:40.299Z,7.37
2017-11-26T04:15:07.882Z,7.32
2017-11-26T04:17:35.430Z,7.57
2017-11-26T04:20:03.010Z,8.18
2017-11-26T04:22:31.313Z,7.32
2017-11-26T04:24:58.892Z,8.52
2017-11-26T04:27:26.458Z,7.50
2017-11-26T04:29:54.047Z,8.52
2017-11-26T04:32:21.595Z,8.80
2017-11-26T04:34:49.177Z,8.20
2017-11-26T04:37:16.735Z,8.25
2017-11-26T04:39:44.314Z,8.43
2017-11-26T04:42:12.621Z,7.50
2017-11-26T04:44:40.174Z,7.05
2017-11-26T04:47:07.757Z,7.43
2017-11-26T04:49:35.301Z,8.73
2017-11-26T04:52:02.891Z,7.12
2017-11-26T04:54:30.443Z,7.87
2017-11-26T04:56:58.033Z,7.65
2017-11-26T04:59:25.573Z,7.32
2017-11-26T05:01:53.222Z,7.10
2017-11-26T05:04:20.766Z,7.35
2017-11-26T05:06:48.376Z,6.80
2017-11-26T05:09:15.919Z,7.05
2017-11-26T05:11:43.499Z,6.72
2017-11-26T05:14:11.081Z,6.82
2017-11-26T05:16:39.496Z,6.12
2017-11-26T05:19:07.071Z,6.45
2017-11-26T05:21:34.613Z,6.47
2017-11-26T05:24:02.198Z,7.18
2017-11-26T05:26:29.741Z,6.30
2017-11-26T05:28:57.318Z,6.43
2017-11-26T05:31:24.864Z,6.37
2017-11-26T05:33:52.438Z,6.87
2017-11-26T05:36:20.078Z,6.25
2017-11-26T05:38:47.659Z,5.93
2017-11-26T05:41:15.194Z,5.90
2017-11-26T05:43:42.778Z,5.15
2017-11-26T05:46:10.355Z,5.15
2017-11-26T05:48:37.895Z,4.95
2017-11-26T05:51:05.473Z,5.68
2017-11-26T05:53:33.010Z,5.03
2017-11-26T05:56:00.590Z,4.57
2017-11-26T05:58:28.178Z,4.50
2017-11-26T06:00:56.489Z,4.68
2017-11-26T06:03:24.027Z,4.30
2017-11-26T06:05:51.601Z,3.75
2017-11-26T06:08:19.139Z,3.90
2017-11-26T06:10:47.486Z,4.07
2017-11-26T06:13:15.030Z,4.18
2017-11-26T06:15:42.602Z,3.92
2017-11-26T06:18:10.135Z,4.12
2017-11-26T06:20:37.710Z,3.87
2017-11-26T06:23:05.266Z,3.28
2017-11-26T06:25:32.908Z,3.40
2017-11-26T06:28:00.450Z,2.95
2017-11-26T06:30:28.026Z,3.30
2017-11-26T06:32:55.580Z,3.55
2017-11-26T06:35:23.169Z,3.80
2017-11-26T06:37:50.746Z,3.92
2017-11-26T06:40:18.282Z,3.92
2017-11-26T06:42:45.858Z,3.90
2017-11-26T06:45:13.487Z,3.95
2017-11-26T06:47:41.018Z,3.25
2017-11-26T06:50:08.594Z,3.55
2017-11-26T06:52:36.131Z,3.85
2017-11-26T06:55:04.476Z,3.70
2017-11-26T06:57:32.779Z,4.32
2017-11-26T07:00:01.141Z,3.95
2017-11-26T07:02:28.678Z,3.62
2017-11-26T07:04:56.254Z,3.15
2017-11-26T07:07:23.792Z,3.42
2017-11-26T07:09:51.363Z,3.62
2017-11-26T07:12:18.898Z,3.50
2017-11-26T07:14:46.559Z,3.55
2017-11-26T07:17:14.102Z,3.42
2017-11-26T07:19:41.670Z,3.53
2017-11-26T07:22:09.205Z,3.30
2017-11-26T07:24:37.540Z,2.87
2017-11-26T07:27:05.081Z,2.75
2017-11-26T07:29:32.661Z,2.60
2017-11-26T07:32:00.332Z,2.95
2017-11-26T07:34:27.917Z,3.20
2017-11-26T07:36:56.231Z,2.97
2017-11-26T07:39:23.810Z,3.70
2017-11-26T07:41:51.374Z,2.85
2017-11-26T07:44:18.950Z,2.40
2017-11-26T07:46:46.580Z,2.28
2017-11-26T07:49:14.110Z,2.70
2017-11-26T07:51:41.678Z,2.67
2017-11-26T07:54:09.259Z,2.30
2017-11-26T07:56:36.785Z,2.33
2017-11-26T07:59:04.377Z,2.20
2017-11-26T08:01:31.910Z,2.33
2017-11-26T08:03:59.483Z,2.12
2017-11-26T08:06:27.147Z,2.20
2017-11-26T08:08:54.721Z,2.35
2017-11-26T08:11:22.259Z,2.40
2017-11-26T08:13:49.834Z,2.25
2017-11-26T08:16:17.379Z,1.55
2017-11-26T08:18:44.951Z,2.30
2017-11-26T08:21:12.487Z,2.58
2017-11-26T08:23:40.074Z,1.85
2017-11-26T08:26:07.630Z,2.22
2017-11-26T08:28:35.211Z,2.25
2017-11-26T08:31:02.746Z,2.83
2017-11-26T08:33:30.319Z,2.00
2017-11-26T08:35:57.899Z,2.42
2017-11-26T08:38:25.437Z,2.15
2017-11-26T08:40:53.009Z,2.10
2017-11-26T08:43:20.543Z,1.70
2017-11-26T08:45:48.115Z,1.62
2017-11-26T08:48:15.690Z,2.12
2017-11-26T08:50:43.226Z,2.03
2017-11-26T08:53:10.797Z,1.98
2017-11-26T08:55:38.342Z,2.17
2017-11-26T08:58:05.926Z,2.30
2017-11-26T09:00:33.570Z,2.10
2017-11-26T09:03:01.143Z,1.80
2017-11-26T09:05:28.717Z,2.22
2017-11-26T09:07:57.066Z,1.92
2017-11-26T09:10:24.676Z,2.30
2017-11-26T09:12:52.195Z,2.75
2017-11-26T09:15:19.776Z,2.80
2017-11-26T09:17:47.409Z,2.50
2017-11-26T09:20:14.990Z,2.92
2017-11-26T09:22:42.532Z,1.98
2017-11-26T09:25:10.105Z,2.53
2017-11-26T09:27:37.654Z,3.20
2017-11-26T09:30:05.224Z,2.78
2017-11-26T09:32:32.765Z,3.00
2017-11-26T09:35:00.431Z,2.87
2017-11-26T09:37:27.974Z,2.40
2017-11-26T09:39:55.553Z,2.53
2017-11-26T09:42:23.098Z,2.60
2017-11-26T09:44:50.669Z,2.72
2017-11-26T09:47:18.208Z,2.37
2017-11-26T09:49:45.778Z,3.15
2017-11-26T09:52:13.319Z,2.87
2017-11-26T09:54:40.901Z,2.53
2017-11-26T09:57:08.435Z,2.50
2017-11-26T09:59:36.770Z,2.35
2017-11-26T10:02:04.301Z,2.40
2017-11-26T10:04:31.883Z,2.37
2017-11-26T10:06:59.424Z,2.55
2017-11-26T10:09:27.000Z,2.65
2017-11-26T10:11:54.545Z,2.90
2017-11-26T10:14:22.126Z,3.12
2017-11-26T10:16:49.667Z,2.28
2017-11-26T10:19:17.241Z,3.00
2017-11-26T10:21:44.783Z,5.12
2017-11-26T10:24:12.359Z,2.08
2017-11-26T10:26:39.898Z,2.25
2017-11-26T10:29:07.561Z,2.83
2017-11-26T10:31:35.093Z,3.00
2017-11-26T10:34:02.679Z,2.62
2017-11-26T10:36:30.217Z,3.00
2017-11-26T10:38:57.795Z,3.05
2017-11-26T10:41:25.326Z,2.40
2017-11-26T10:43:53.667Z,1.98
2017-11-26T10:46:21.970Z,2.33
2017-11-26T10:48:50.317Z,1.85
2017-11-26T10:51:17.852Z,2.30
2017-11-26T10:53:45.446Z,2.15
2017-11-26T10:56:12.998Z,2.17
2017-11-26T10:58:40.632Z,2.12
2017-11-26T11:01:08.170Z,1.92
2017-11-26T11:03:35.749Z,2.00
2017-11-26T11:06:03.293Z,2.20
2017-11-26T11:08:30.876Z,2.20
2017-11-26T11:10:58.413Z,2.37
2017-11-26T11:13:25.993Z,1.80
2017-11-26T11:15:53.525Z,2.42
2017-11-26T11:18:21.103Z,2.05
2017-11-26T11:20:48.648Z,2.30
2017-11-26T11:23:16.230Z,2.15
2017-11-26T11:25:43.773Z,2.10
2017-11-26T11:28:11.347Z,2.00
2017-11-26T11:30:38.891Z,2.30
2017-11-26T11:33:06.464Z,1.67
2017-11-26T11:35:34.146Z,1.65
2017-11-26T11:38:01.744Z,2.00
2017-11-26T11:40:30.043Z,1.87
2017-11-26T11:42:57.623Z,1.75
2017-11-26T11:45:25.158Z,1.50
2017-11-26T11:47:52.741Z,1.60
2017-11-26T11:50:20.285Z,2.00
2017-11-26T11:52:47.866Z,1.70
2017-11-26T11:55:15.398Z,1.95
2017-11-26T11:57:43.082Z,2.05
2017-11-26T12:00:10.654Z,2.00
2017-11-26T12:02:38.278Z,1.70
2017-11-26T12:05:06.608Z,2.05
2017-11-26T12:07:34.226Z,1.80
2017-11-26T12:10:01.794Z,1.80
2017-11-26T12:12:29.366Z,2.00
2017-11-26T12:14:56.908Z,2.00
2017-11-26T12:17:24.485Z,2.28
2017-11-26T12:19:52.016Z,2.30
2017-11-26T12:22:19.594Z,2.67
2017-11-26T12:24:47.146Z,2.08
2017-11-26T12:27:14.743Z,1.90
2017-11-26T12:29:43.238Z,2.17
2017-11-26T12:32:10.836Z,2.62
2017-11-26T12:34:38.380Z,2.20
2017-11-26T12:37:06.747Z,1.87
2017-11-26T12:39:34.371Z,1.98
2017-11-26T12:42:02.017Z,1.92
2017-11-26T12:44:29.632Z,2.50
2017-11-26T12:46:57.344Z,2.30
2017-11-26T12:49:24.938Z,2.83
2017-11-26T12:51:52.570Z,2.55
2017-11-26T12:54:20.181Z,2.15
2017-11-26T12:56:48.625Z,2.10
2017-11-26T12:59:16.163Z,2.00
2017-11-26T13:01:43.972Z,2.00
2017-11-26T13:04:11.518Z,2.22
2017-11-26T13:06:39.127Z,2.20
2017-11-26T13:09:07.541Z,2.05
2017-11-26T13:11:35.168Z,1.77
2017-11-26T13:14:03.531Z,1.80
2017-11-26T13:16:31.960Z,1.90
2017-11-26T13:18:59.563Z,1.87
2017-11-26T13:21:27.182Z,2.00
2017-11-26T13:23:54.787Z,2.05
2017-11-26T13:26:22.325Z,1.85
2017-11-26T13:28:49.903Z,1.83
2017-11-26T13:31:17.455Z,2.30
2017-11-26T13:33:45.185Z,2.25
2017-11-26T13:36:12.734Z,2.22
2017-11-26T13:38:40.310Z,1.90
2017-11-26T13:41:07.902Z,1.73
2017-11-26T13:43:35.442Z,1.60
2017-11-26T13:46:02.988Z,1.80
2017-11-26T13:48:30.559Z,1.10
2017-11-26T13:50:58.134Z,1.98
2017-11-26T13:53:25.716Z,2.25
2017-11-26T13:55:54.038Z,1.60
2017-11-26T13:58:21.617Z,1.80
2017-11-26T14:00:49.154Z,1.83
2017-11-26T14:03:16.727Z,1.65
2017-11-26T14:05:44.274Z,2.28
2017-11-26T14:08:11.873Z,1.80
2017-11-26T14:10:39.434Z,1.73
2017-11-26T14:13:07.062Z,2.12
2017-11-26T14:15:34.643Z,2.03
2017-11-26T14:18:02.195Z,2.33
2017-11-26T14:20:29.769Z,2.30
2017-11-26T14:22:57.303Z,1.60
2017-11-26T14:25:24.936Z,1.80
2017-11-26T14:27:52.478Z,2.12
2017-11-26T14:30:20.814Z,1.90
2017-11-26T14:32:48.388Z,1.90
2017-11-26T14:35:15.967Z,1.40
2017-11-26T14:37:43.501Z,2.05
2017-11-26T14:40:11.069Z,1.40
2017-11-26T14:42:39.414Z,1.00
2017-11-26T14:45:06.952Z,1.48
2017-11-26T14:47:34.644Z,1.75
2017-11-26T14:50:02.300Z,1.60
2017-11-26T14:52:29.894Z,1.98
2017-11-26T14:54:57.434Z,1.52
2017-11-26T14:57:24.965Z,2.05
2017-11-26T14:59:52.558Z,2.05
2017-11-26T15:02:20.099Z,2.03
2017-11-26T15:04:47.660Z,2.33
2017-11-26T15:07:15.243Z,1.83
2017-11-26T15:09:42.826Z,3.10
2017-11-26T15:12:11.140Z,1.80
2017-11-26T15:14:38.736Z,2.12
2017-11-26T15:17:06.277Z,2.28
2017-11-26T15:19:33.817Z,1.60
2017-11-26T15:22:01.397Z,2.12
2017-11-26T15:24:29.274Z,2.03
2017-11-26T15:26:56.846Z,1.73
2017-11-26T15:29:24.414Z,1.85
2017-11-26T15:31:51.995Z,1.95
2017-11-26T15:34:20.298Z,2.17
2017-11-26T15:36:47.835Z,1.98
2017-11-26T15:39:16.179Z,3.72
2017-11-26T15:41:43.728Z,3.20
2017-11-26T15:44:11.301Z,2.35
2017-11-26T15:46:38.879Z,4.22
2017-11-26T15:49:07.414Z,6.90
2017-11-26T15:51:35.132Z,2.58
2017-11-26T15:54:02.845Z,3.08
2017-11-26T15:56:30.631Z,3.22
2017-11-26T15:58:58.218Z,5.80
2017-11-26T16:01:25.758Z,3.45
2017-11-26T16:03:53.343Z,2.50
2017-11-26T16:06:20.949Z,2.55
2017-11-26T16:08:48.487Z,2.25
2017-11-26T16:11:16.078Z,1.77
2017-11-26T16:13:43.610Z,2.37
2017-11-26T16:16:11.296Z,1.95
2017-11-26T16:18:38.905Z,1.85
2017-11-26T16:21:07.210Z,2.55
2017-11-26T16:23:34.758Z,4.00
2017-11-26T16:26:02.351Z,2.50
2017-11-26T16:28:29.887Z,2.37
2017-11-26T16:30:57.422Z,1.35
2017-11-26T16:33:25.765Z,1.30
2017-11-26T16:35:53.299Z,1.90
2017-11-26T16:38:20.846Z,2.53
2017-11-26T16:40:48.421Z,1.73
2017-11-26T16:43:15.955Z,4.20
2017-11-26T16:45:43.543Z,2.40
2017-11-26T16:48:11.841Z,1.55
2017-11-26T16:50:39.552Z,2.50
2017-11-26T16:53:07.963Z,2.35
2017-11-26T16:55:35.507Z,2.00
2017-11-26T16:58:03.083Z,2.33
2017-11-26T17:00:30.664Z,2.42
2017-11-26T17:02:58.203Z,2.62
2017-11-26T17:05:25.785Z,2.50
2017-11-26T17:07:53.327Z,2.90
2017-11-26T17:10:20.871Z,2.90
2017-11-26T17:12:48.542Z,3.33
2017-11-26T17:15:16.074Z,3.35
2017-11-26T17:17:43.660Z,3.62
2017-11-26T17:20:11.202Z,3.40
2017-11-26T17:22:38.780Z,2.42
2017-11-26T17:25:06.355Z,2.80
2017-11-26T17:27:33.891Z,2.72
2017-11-26T17:30:01.467Z,2.90
2017-11-26T17:32:29.075Z,2.90
2017-11-26T17:34:57.376Z,2.85
2017-11-26T17:37:24.947Z,3.20
2017-11-26T17:39:52.494Z,2.70
2017-11-26T17:42:20.129Z,2.70
2017-11-26T17:44:48.559Z,2.97
2017-11-26T17:47:16.113Z,2.20
2017-11-26T17:49:43.657Z,2.20
2017-11-26T17:52:11.340Z,2.50
2017-11-26T17:54:38.871Z,2.50
2017-11-26T17:57:06.417Z,2.78
2017-11-26T17:59:34.754Z,2.97
2017-11-26T18:02:02.298Z,2.50
2017-11-26T18:04:29.869Z,3.10
2017-11-26T18:06:57.403Z,2.67
2017-11-26T18:09:24.983Z,2.50
2017-11-26T18:11:52.524Z,2.72
2017-11-26T18:14:20.066Z,2.45
2017-11-26T18:16:47.642Z,2.28
2017-11-26T18:19:15.316Z,2.33
2017-11-26T18:21:42.860Z,2.20
2017-11-26T18:24:10.460Z,2.80
2017-11-26T18:26:37.993Z,2.28
2017-11-26T18:29:05.571Z,2.22
2017-11-26T18:31:33.131Z,2.37
2017-11-26T18:34:00.671Z,1.80
2017-11-26T18:36:28.251Z,2.58
2017-11-26T18:38:55.793Z,2.20
2017-11-26T18:41:23.373Z,2.50
2017-11-26T18:43:50.951Z,2.62
2017-11-26T18:46:18.493Z,2.90
2017-11-26T18:48:46.071Z,2.35
2017-11-26T18:51:13.649Z,2.70
2017-11-26T18:53:42.071Z,2.90
2017-11-26T18:56:09.642Z,2.45
2017-11-26T18:58:37.294Z,2.15
2017-11-26T19:01:04.838Z,2.10
2017-11-26T19:03:32.383Z,2.90
2017-11-26T19:05:59.959Z,2.20
2017-11-26T19:08:27.503Z,1.65
2017-11-26T19:10:55.091Z,2.78
2017-11-26T19:13:22.670Z,2.50
2017-11-26T19:15:50.210Z,2.12
2017-11-26T19:18:17.752Z,2.25
2017-11-26T19:20:45.346Z,2.87
2017-11-26T19:23:12.884Z,2.47
2017-11-26T19:25:40.423Z,1.90
2017-11-26T19:28:08.001Z,2.10
2017-11-26T19:30:35.678Z,2.55
2017-11-26T19:33:03.258Z,2.90
2017-11-26T19:35:30.858Z,2.83
2017-11-26T19:37:59.158Z,2.45
2017-11-26T19:40:26.702Z,2.42
2017-11-26T19:42:54.278Z,2.30
2017-11-26T19:45:21.843Z,2.65
2017-11-26T19:47:49.438Z,2.40
2017-11-26T19:50:17.070Z,2.53
2017-11-26T19:52:44.612Z,2.15
2017-11-26T19:55:12.194Z,2.42
2017-11-26T19:57:39.779Z,2.97
2017-11-26T20:00:07.355Z,2.60
2017-11-26T20:02:34.890Z,2.53
2017-11-26T20:05:02.531Z,3.10
2017-11-26T20:07:30.116Z,2.95
2017-11-26T20:09:57.728Z,2.90
2017-11-26T20:12:25.278Z,2.72
2017-11-26T20:14:53.601Z,2.12
2017-11-26T20:17:21.183Z,3.08
2017-11-26T20:19:48.801Z,2.45
2017-11-26T20:22:16.336Z,2.40
2017-11-26T20:24:44.921Z,2.30
2017-11-26T20:27:13.224Z,2.70
2017-11-26T20:29:40.852Z,2.37
2017-11-26T20:32:09.149Z,3.00
2017-11-26T20:34:36.686Z,3.70
2017-11-26T20:37:05.022Z,2.87
2017-11-26T20:39:32.568Z,2.60
2017-11-26T20:42:00.137Z,2.30
2017-11-26T20:44:27.719Z,2.40
2017-11-26T20:46:55.295Z,2.45
2017-11-26T20:49:23.655Z,2.25
2017-11-26T20:51:51.190Z,2.30
2017-11-26T20:54:18.789Z,2.17
2017-11-26T20:56:46.488Z,2.40
2017-11-26T20:59:14.053Z,2.50
2017-11-26T21:01:41.686Z,2.10
2017-11-26T21:04:10.022Z,2.75
2017-11-26T21:06:37.598Z,2.20
2017-11-26T21:09:05.131Z,2.22
2017-11-26T21:11:32.671Z,2.50
2017-11-26T21:14:00.255Z,2.40
2017-11-26T21:16:27.905Z,2.20
2017-11-26T21:18:55.490Z,2.62
2017-11-26T21:21:23.126Z,2.03
2017-11-26T21:23:50.714Z,2.20
2017-11-26T21:26:18.250Z,2.47
2017-11-26T21:28:45.834Z,2.62
2017-11-26T21:31:13.375Z,2.50
2017-11-26T21:33:40.942Z,2.25
2017-11-26T21:36:08.524Z,2.45
2017-11-26T21:38:36.058Z,2.83
2017-11-26T21:41:03.597Z,2.55
2017-11-26T21:43:31.172Z,2.50
2017-11-26T21:45:58.733Z,2.50
2017-11-26T21:48:26.266Z,2.97
2017-11-26T21:50:53.844Z,2.80
2017-11-26T21:53:21.381Z,2.47
2017-11-26T21:55:48.961Z,2.87
2017-11-26T21:58:16.623Z,2.87
2017-11-26T22:00:44.228Z,2.55
2017-11-26T22:03:12.530Z,2.75
2017-11-26T22:05:40.832Z,2.30
2017-11-26T22:08:08.407Z,3.03
2017-11-26T22:10:36.265Z,2.95
2017-11-26T22:13:03.803Z,2.70
2017-11-26T22:15:31.339Z,3.45
2017-11-26T22:17:59.677Z,3.22
2017-11-26T22:20:27.265Z,2.37
2017-11-26T22:22:54.797Z,2.85
2017-11-26T22:25:22.369Z,2.47
2017-11-26T22:27:49.902Z,3.15
2017-11-26T22:30:17.474Z,3.42
2017-11-26T22:32:45.051Z,2.80
2017-11-26T22:35:12.584Z,2.83
2017-11-26T22:37:40.137Z,2.85
2017-11-26T22:40:07.720Z,2.85
2017-11-26T22:42:35.260Z,2.97
2017-11-26T22:45:02.845Z,2.83
2017-11-26T22:47:30.391Z,3.25
2017-11-26T22:49:57.934Z,3.05
2017-11-26T22:52:25.526Z,2.92
2017-11-26T22:54:53.064Z,2.80
2017-11-26T22:57:20.599Z,3.28
2017-11-26T22:59:48.173Z,3.45
2017-11-26T23:02:15.706Z,2.70
2017-11-26T23:04:45.171Z,3.00
2017-11-26T23:07:12.698Z,3.33
2017-11-26T23:09:40.277Z,3.45
2017-11-26T23:12:07.814Z,3.30
2017-11-26T23:14:35.353Z,3.80
2017-11-26T23:17:03.037Z,3.53
2017-11-26T23:19:30.575Z,3.47
2017-11-26T23:21:58.142Z,3.97
2017-11-26T23:24:25.718Z,3.78
2017-11-26T23:26:53.249Z,3.45
2017-11-26T23:29:20.786Z,3.58
2017-11-26T23:31:49.214Z,3.83
2017-11-26T23:34:16.777Z,3.62
2017-11-26T23:36:44.312Z,3.53
2017-11-26T23:39:11.896Z,3.37
2017-11-26T23:41:39.431Z,3.45
2017-11-26T23:44:07.012Z,3.30
2017-11-26T23:46:34.571Z,3.85
2017-11-26T23:49:02.105Z,3.60
2017-11-26T23:51:29.689Z,3.50
2017-11-26T23:53:57.221Z,3.90
2017-11-26T23:56:25.567Z,3.40
2017-11-26T23:58:53.258Z,3.60
